Flight Track Log - Related Links

Times and Time Zones

All times are in EDT time to prevent confusion due to time zone crossing. See the DAL1051 flight status page for this flight to view local times or setup timezone preferences in your user account.

Time Position Orientation Groundspeed Altitude Reporting Facility
EDT Latitude Longitude Course Direction KTS MPH feet Rate Location/Type
Tue 12:41:49 PM 44.9167 -93.2667 288° West 166 191 2,800  Level Minneapolis TRACON
Tue 12:43:00 PM 45.0075 -93.6391 295° West  Level FlightAware Approximate
Tue 12:43:18 PM 44.9508 -93.3756 294° West 249 287 4,400  Level Minneapolis Center
Tue 12:44:00 PM 45.0547 -93.7806 295° West  Level FlightAware Approximate
Tue 12:44:20 PM 44.9850 -93.4658 298° West 261 300 7,900  Level Minneapolis Center
Tue 12:45:00 PM 45.0978 -93.9245 290° West  Level FlightAware Approximate
Tue 12:45:22 PM 45.0100 -93.5653 290° West 269 310 11,100  Level Minneapolis Center
Tue 12:46:00 PM 45.1312 -94.0738 288° West  Level FlightAware Approximate
Tue 12:46:24 PM 45.0461 -93.7069 290° West 336 387 13,100  Level Minneapolis Center
Tue 12:47:00 PM 45.1645 -94.2233 288° West  Level FlightAware Approximate
Tue 12:47:26 PM 45.0797 -93.8389 290° West 359 413 15,700  Level Minneapolis Center
Tue 12:48:28 PM 45.1142 -93.9758 290° West 374 430 18,100 2,208 Climbing Minneapolis Center
Tue 12:49:31 PM 45.1475 -94.1172 289° West 376 433 20,300 1,927 Climbing Minneapolis Center
Tue 12:50:45 PM 45.1833 -94.2644 289° West 390 449 22,500 1,632 Climbing Minneapolis Center
Tue 12:51:47 PM 45.2192 -94.4147 289° West 399 459 24,000 1,742 Climbing Minneapolis Center
Tue 12:52:49 PM 45.2719 -94.6353 289° West 419 482 26,100 1,597 Climbing Minneapolis Center
Tue 12:53:51 PM 45.3047 -94.7769 288° West 429 494 27,300 1,235 Climbing Minneapolis Center
Tue 12:55:05 PM 45.3517 -94.9753 289° West 440 506 28,900 1,664 Climbing Minneapolis Center
Tue 12:56:08 PM 45.3978 -95.1722 289° West 440 506 31,100 1,776 Climbing Minneapolis Center
Tue 12:57:10 PM 45.4339 -95.3286 288° West 423 487 32,600 1,210 Climbing Minneapolis Center
Tue 12:58:12 PM 45.4689 -95.4881 287° West 424 488 33,600 677 Climbing Minneapolis Center
Tue 12:59:14 PM 45.5061 -95.6478 288° West 426 490 34,000 188 Climbing Minneapolis Center
Tue 01:00:20 PM 45.5486 -95.8389 288° West 425 489 34,000  Level Minneapolis Center
Tue 01:01:22 PM 45.5847 -96.0003 288° West 427 491 34,000  Level Minneapolis Center
Tue 01:02:24 PM 45.6211 -96.1600 288° West 426 490 34,000 145 Level Minneapolis Center
Tue 01:03:26 PM 45.6564 -96.3231 287° West 430 495 34,300 829 Climbing Minneapolis Center
Tue 01:04:27 PM 45.6914 -96.4844 287° West 427 491 35,700 823 Climbing Minneapolis Center
Tue 01:05:30 PM 45.7317 -96.6678 288° West 406 467 36,000 144 Climbing Minneapolis Center
Tue 01:06:32 PM 45.7656 -96.8206 288° West 404 465 36,000  Level Minneapolis Center
Tue 01:07:34 PM 45.7972 -96.9761 286° West 408 470 36,000  Level Minneapolis Center
Tue 01:08:36 PM 45.8294 -97.1289 287° West 404 465 36,000  Level Minneapolis Center
Tue 01:09:38 PM 45.8683 -97.3139 287° West 405 466 36,000  Level Minneapolis Center
Tue 01:10:40 PM 45.8983 -97.4525 287° West 408 470 36,000 -48 Level Minneapolis Center
Tue 01:11:42 PM 45.9269 -97.6128 284° West 412 474 35,900  Descending Minneapolis Center
Tue 01:12:44 PM 45.9403 -97.7744 277° West 408 470 36,000 48 Climbing Minneapolis Center
Tue 01:13:46 PM 45.9581 -97.9694 278° West 410 472 36,000  Level Minneapolis Center
Tue 01:14:48 PM 45.9722 -98.1286 277° West 408 470 36,000  Level Minneapolis Center
Tue 01:15:50 PM 45.9872 -98.2914 278° West 411 473 36,000  Level Minneapolis Center
Tue 01:16:53 PM 46.0006 -98.4508 277° West 406 467 36,000  Level Minneapolis Center
Tue 01:17:55 PM 46.0142 -98.6108 277° West 404 465 36,000  Level Minneapolis Center
Tue 01:18:57 PM 46.0300 -98.8044 277° West 407 468 36,000  Level Minneapolis Center
Tue 01:19:59 PM 46.0419 -98.9631 276° West 404 465 36,000  Level Minneapolis Center
Tue 01:21:01 PM 46.0547 -99.1228 277° West 403 464 36,000  Level Minneapolis Center
Tue 01:22:03 PM 46.0678 -99.2833 277° West 404 465 36,000  Level Minneapolis Center
Tue 01:23:05 PM 46.0797 -99.4436 276° West 404 465 36,000  Level Minneapolis Center
Tue 01:24:07 PM 46.0942 -99.6358 276° West 404 465 36,000  Level Minneapolis Center
Tue 01:25:09 PM 46.1053 -99.7936 276° West 401 461 36,000  Level Minneapolis Center
Tue 01:26:11 PM 46.1161 -99.9553 276° West 406 467 36,000  Level Minneapolis Center
Tue 01:27:13 PM 46.1281 -100.1169 276° West 409 471 36,000  Level Minneapolis Center
Tue 01:28:15 PM 46.1394 -100.2756 276° West 403 464 36,000  Level Minneapolis Center
Tue 01:29:17 PM 46.1483 -100.4325 275° West 398 458 36,000  Level Minneapolis Center
Tue 01:30:19 PM 46.1425 -100.6272 268° West 403 464 36,000  Level Minneapolis Center
Tue 01:31:21 PM 46.1406 -100.7881 269° West 404 465 36,000  Level Minneapolis Center
Tue 01:32:35 PM 46.1389 -100.9506 269° West 406 467 36,000  Level Minneapolis Center
Tue 01:33:50 PM 46.1367 -101.1469 269° West 409 471 36,000  Level Minneapolis Center
Tue 01:34:52 PM 46.1339 -101.3414 269° West 408 470 36,000  Level Minneapolis Center
Tue 01:35:55 PM 46.1303 -101.5397 269° West 409 471 36,000  Level Minneapolis Center
Tue 01:36:57 PM 46.1278 -101.7047 269° West 411 473 36,000  Level Minneapolis Center
Tue 01:37:59 PM 46.1247 -101.8661 268° West 409 471 36,000  Level Minneapolis Center
Tue 01:39:13 PM 46.1217 -102.0267 268° West 406 467 36,000  Level Minneapolis Center
Tue 01:40:15 PM 46.1181 -102.2225 269° West 406 467 36,000  Level Minneapolis Center
Tue 01:41:17 PM 46.1139 -102.3828 268° West 405 466 36,000 -48 Level Minneapolis Center
Tue 01:42:19 PM 46.1089 -102.5764 268° West 406 467 35,900 -48 Descending Minneapolis Center
Tue 01:43:21 PM 46.1081 -102.7361 270° West 404 465 35,900 48 Level Minneapolis Center
Tue 01:44:24 PM 46.0997 -102.8972 266° West 403 464 36,000 48 Climbing Minneapolis Center
Tue 01:45:26 PM 46.0917 -103.0600 266° West 405 466 36,000  Level Minneapolis Center
Tue 01:46:28 PM 46.0833 -103.2228 266° West 406 467 36,000  Level Minneapolis Center
Tue 01:47:30 PM 46.0750 -103.3847 266° West 406 467 36,000  Level Minneapolis Center
Tue 01:48:32 PM 46.0656 -103.5800 266° West 407 468 36,000 -50 Level Minneapolis Center
Tue 01:49:30 PM 46.0567 -103.7131 265° West 409 471 35,900  Descending Salt Lake Center
Tue 01:50:32 PM 46.0456 -103.9092 265° West 410 472 36,000 48 Climbing Salt Lake Center
Tue 01:51:34 PM 46.0372 -104.0731 266° West 409 471 36,000  Level Salt Lake Center
Tue 01:52:36 PM 46.0278 -104.2367 265° West 410 472 36,000  Level Salt Lake Center
Tue 01:53:38 PM 46.0183 -104.3978 265° West 410 472 36,000  Level Salt Lake Center
Tue 01:54:40 PM 46.0083 -104.5592 265° West 408 470 36,000 -48 Level Salt Lake Center
Tue 01:55:42 PM 45.9992 -104.7161 265° West 403 464 35,900 -48 Descending Salt Lake Center
Tue 01:56:44 PM 45.9886 -104.8750 265° West 401 461 35,900  Level Salt Lake Center
Tue 01:57:46 PM 45.9767 -105.0653 265° West 400 460 35,900 48 Level Salt Lake Center
Tue 01:58:48 PM 45.9667 -105.2261 265° West 401 461 36,000 48 Climbing Salt Lake Center
Tue 01:59:50 PM 45.9569 -105.3889 265° West 403 464 36,000  Level Salt Lake Center
Tue 02:00:52 PM 45.9447 -105.5472 264° West 403 464 36,000  Level Salt Lake Center
Tue 02:01:54 PM 45.9331 -105.7092 264° West 405 466 36,000  Level Salt Lake Center
Tue 02:02:56 PM 45.9214 -105.8694 264° West 405 466 36,000 -48 Level Salt Lake Center
Tue 02:03:58 PM 45.9083 -106.0619 265° West 405 466 35,900 -144 Descending Salt Lake Center
Tue 02:05:01 PM 45.8947 -106.2206 263° West 404 465 35,700 -672 Descending Salt Lake Center
Tue 02:06:03 PM 45.8833 -106.3831 264° West 405 466 34,500 -2,806 Descending Salt Lake Center
Tue 02:07:05 PM 45.8703 -106.5492 264° West 410 472 29,900 -3,919 Descending Salt Lake Center
Tue 02:08:07 PM 45.8544 -106.7200 262° West 420 483 26,400 -3,097 Descending Salt Lake Center
Tue 02:09:09 PM 45.8433 -106.8858 265° West 421 484 23,500 -3,000 Descending Salt Lake Center
Tue 02:10:11 PM 45.8300 -107.0758 264° West 413 475 20,200 -2,855 Descending Salt Lake Center
Tue 02:11:13 PM 45.8183 -107.2278 264° West 392 451 17,600 -2,323 Descending Salt Lake Center
Tue 02:12:15 PM 45.8050 -107.3878 263° West 380 437 15,400 -2,032 Descending Salt Lake Center
Tue 02:13:17 PM 45.8008 -107.5325 268° West 370 426 13,400 -1,548 Descending Salt Lake Center
Tue 02:14:19 PM 45.7961 -107.6733 267° West 336 387 12,200 -1,113 Descending Salt Lake Center
Tue 02:15:21 PM 45.7928 -107.7906 268° West 303 349 11,100 -1,065 Descending Salt Lake Center
Tue 02:16:23 PM 45.7883 -107.9039 267° West 273 314 10,000 -968 Descending Salt Lake Center
Tue 02:17:25 PM 45.7853 -108.0025 267° West 253 291 9,100 -919 Descending Salt Lake Center
Tue 02:18:27 PM 45.7811 -108.1103 267° West 252 290 8,100 -968 Descending Salt Lake Center

Login

Don't have an account? Register now (free) for customized features, flight alerts, and more!